Aérodrome :
LOGIN :

S'inscrire | Disclaimer

   EN    FR    IT 

 










Légende :    VFR   VFR Marginal   IFR   IFR Intensif   IFR Très Intensif
Visi : 
Plafond : 
>= 8 km
>= 3000ft
5 à 8 km
1000 à 3000 ft
1500m à 5 km
500 à 1000 ft
800 à 1500m
200 à 500 ft
< 800m
< 200 ft
Symboles :   Orages  Brouillard  Fortes neiges  Fortes précipitations  Vent > 20 kt
SIGMETs :   Divers  Orages  Givrage  Turbulence  Onde Orograph.  Cendres Volcan.






- Altitude de l'aérodrome : 42 ft
- Code IATA : LMO


EGQS - Lossiemouth

DERNIER METAR :
  • 261650Z 26015KT 9999 FEW015CB 03/M02 Q0996 NOSIG RMK BLU BLU

METARs EXPIRÉS :
  • 261620Z 27017KT 9999 FEW015CB 03/M01 Q0996 NOSIG RMK BLU BLU
  • 261550Z 26016KT 9999 FEW015CB 04/M02 Q0996 NOSIG RMK BLU BLU
  • 261522Z 25014KT 9999 FEW012TCU FEW015CB 04/M01 Q0996 NOSIG RMK BLU BLU
  • 261450Z 25019KT 9999 VCSH FEW015CB SCT180 04/M01 Q0996 NOSIG RMK BLU BLU

TAF AMD TAF EGQS
Valide du 26 à 18h jusqu'au 27 à 12h UTC


261703Z 2618/2712 25010KT 9999 FEW018
PROB30
TEMPO 2618/2710 SCT018
BECMG 2710/2712 26015G25KT
PROB30
TEMPO 2710/2712 4000 SHRASN SCT015CB



MET'MAP, la Météo Aéronautique d'un coup d'oeil ! - Copyright ORBIFLY Décembre 2007 - Disclaimer

ORBIFLY MET'MAP TEAM :

Programmation & Développement : Alexandra Zaïnal
Sur une idée originale de : Baudouin d'Aumeries
Assistance à la programmation : Marc-Olivier Méhu
Soutien technique & logistique : Manuel Goepfert

Contact : metmap@orbifly.com




SOURCES & CREDITS :

   NOAA